createdAt,value
2023-03-26T00:01:07.594Z,100106.16
2023-03-26T00:04:12.572Z,100110.41
2023-03-26T00:07:17.308Z,100118.38
2023-03-26T00:10:21.427Z,100118.25
2023-03-26T00:13:26.120Z,100123.63
2023-03-26T00:16:32.022Z,100131.38
2023-03-26T00:19:37.002Z,100139.91
2023-03-26T00:22:41.576Z,100144.63
2023-03-26T00:25:50.783Z,100157.34
2023-03-26T00:28:55.284Z,100159.91
2023-03-26T00:31:59.950Z,100171.16
2023-03-26T00:35:05.129Z,100167.59
2023-03-26T00:38:09.545Z,100168.13
2023-03-26T00:41:17.981Z,100176.66
2023-03-26T00:44:22.532Z,100178.66
2023-03-26T00:47:28.783Z,100173.56
2023-03-26T00:50:33.122Z,100180.75
2023-03-26T00:53:38.995Z,100183.63
2023-03-26T00:56:43.467Z,100179.22
2023-03-26T00:59:51.334Z,100182.81
2023-03-26T01:02:55.914Z,100178.63
2023-03-26T01:06:27.730Z,100193.28
2023-03-26T01:09:36.922Z,100193.34
2023-03-26T01:12:41.364Z,100200.47
2023-03-26T01:15:50.965Z,100206.53
2023-03-26T01:18:58.722Z,100195.44
2023-03-26T01:22:02.778Z,100204.44
2023-03-26T01:25:09.508Z,100189.63
2023-03-26T01:28:17.525Z,100186.19
2023-03-26T01:31:38.671Z,100197.41
2023-03-26T01:35:12.433Z,100181.16
2023-03-26T01:38:46.848Z,100174.31
2023-03-26T01:42:11.365Z,100168.38
2023-03-26T01:45:21.412Z,100156.16
2023-03-26T01:48:38.008Z,100154.44
2023-03-26T01:51:43.015Z,100144.13
2023-03-26T01:54:47.559Z,100146.22
2023-03-26T01:58:13.184Z,100133.50
2023-03-26T02:01:30.301Z,100126.34
2023-03-26T02:05:04.167Z,100102.22
2023-03-26T02:08:35.672Z,100098.84
2023-03-26T02:11:41.433Z,100080.31
2023-03-26T02:14:46.209Z,100076.91
2023-03-26T02:17:52.438Z,100075.88
2023-03-26T02:20:56.644Z,100068.31
2023-03-26T02:24:03.775Z,100066.09
2023-03-26T02:27:09.552Z,100069.50
2023-03-26T02:30:20.654Z,100059.16
2023-03-26T02:33:24.774Z,100066.97
2023-03-26T02:36:29.318Z,100054.13
2023-03-26T02:39:34.655Z,100060.56
2023-03-26T02:42:39.381Z,100064.00
2023-03-26T02:45:43.507Z,100072.75
2023-03-26T02:48:47.979Z,100079.00
2023-03-26T02:51:56.188Z,100077.19
2023-03-26T02:55:00.295Z,100089.50
2023-03-26T02:58:04.535Z,100093.19
2023-03-26T03:01:08.841Z,100104.88
2023-03-26T03:04:13.497Z,100104.22
2023-03-26T03:07:17.989Z,100112.09
2023-03-26T03:10:22.192Z,100107.91
2023-03-26T03:13:27.049Z,100109.97
2023-03-26T03:16:32.262Z,100106.84
2023-03-26T03:19:37.792Z,100113.31
2023-03-26T03:22:42.907Z,100110.72
2023-03-26T03:25:47.946Z,100114.09
2023-03-26T03:28:52.187Z,100119.19
2023-03-26T03:31:56.690Z,100116.47
2023-03-26T03:35:01.258Z,100126.84
2023-03-26T03:38:05.757Z,100134.53
2023-03-26T03:41:11.300Z,100139.78
2023-03-26T03:44:16.749Z,100130.34
2023-03-26T03:47:22.865Z,100118.34
2023-03-26T03:50:27.311Z,100126.47
2023-03-26T03:53:31.868Z,100123.09
2023-03-26T03:56:38.008Z,100124.81
2023-03-26T03:59:47.481Z,100126.47
2023-03-26T04:02:54.315Z,100129.06
2023-03-26T04:06:00.578Z,100126.59
2023-03-26T04:09:05.578Z,100137.59
2023-03-26T04:12:09.971Z,100124.59
2023-03-26T04:15:14.155Z,100134.94
2023-03-26T04:18:18.182Z,100129.97
2023-03-26T04:21:22.415Z,100135.19
2023-03-26T04:24:27.014Z,100130.91
2023-03-26T04:27:35.465Z,100130.78
2023-03-26T04:30:42.396Z,100136.22
2023-03-26T04:33:47.808Z,100134.47
2023-03-26T04:36:56.516Z,100134.41
2023-03-26T04:40:06.426Z,100138.88
2023-03-26T04:43:18.910Z,100141.66
2023-03-26T04:46:23.786Z,100133.81
2023-03-26T04:49:28.214Z,100123.72
2023-03-26T04:52:33.443Z,100125.81
2023-03-26T04:55:45.231Z,100124.28
2023-03-26T04:58:51.797Z,100116.59
2023-03-26T05:01:58.040Z,100108.34
2023-03-26T05:05:02.976Z,100101.56
2023-03-26T05:08:07.540Z,100090.19
2023-03-26T05:11:11.907Z,100092.94
2023-03-26T05:14:16.784Z,100086.06
2023-03-26T05:17:23.673Z,100075.44
2023-03-26T05:20:31.136Z,100070.47
2023-03-26T05:23:35.870Z,100071.34
2023-03-26T05:26:40.073Z,100063.34
2023-03-26T05:29:44.333Z,100068.41
2023-03-26T05:32:50.149Z,100068.19
2023-03-26T05:36:13.391Z,100059.72
2023-03-26T05:39:18.515Z,100061.28
2023-03-26T05:42:23.270Z,100062.25
2023-03-26T05:45:27.851Z,100062.88
2023-03-26T05:48:32.118Z,100061.06
2023-03-26T05:51:36.630Z,100055.97
2023-03-26T05:54:42.096Z,100054.25
2023-03-26T05:57:46.582Z,100046.50
2023-03-26T06:01:06.008Z,100041.81
2023-03-26T06:04:13.772Z,100046.00
2023-03-26T06:07:19.792Z,100048.72
2023-03-26T06:10:24.276Z,100046.97
2023-03-26T06:13:28.981Z,100053.69
2023-03-26T06:16:34.030Z,100062.34
2023-03-26T06:19:38.710Z,100055.38
2023-03-26T06:22:42.969Z,100046.66
2023-03-26T06:25:47.823Z,100048.59
2023-03-26T06:28:51.938Z,100036.38
2023-03-26T06:32:01.464Z,100044.72
2023-03-26T06:35:11.440Z,100049.81
2023-03-26T06:38:15.869Z,100046.19
2023-03-26T06:41:19.990Z,100049.34
2023-03-26T06:44:24.129Z,100047.50
2023-03-26T06:47:28.498Z,100054.16
2023-03-26T06:50:32.941Z,100047.28
2023-03-26T06:53:37.710Z,100043.75
2023-03-26T06:56:42.294Z,100053.03
2023-03-26T06:59:46.374Z,100051.13
2023-03-26T07:02:50.684Z,100052.91
2023-03-26T07:05:54.673Z,100053.69
2023-03-26T07:08:59.150Z,100056.94
2023-03-26T07:12:03.748Z,100056.88
2023-03-26T07:15:09.418Z,100043.56
2023-03-26T07:18:13.633Z,100040.50
2023-03-26T07:21:19.824Z,100039.06
2023-03-26T07:24:25.803Z,100045.44
2023-03-26T07:27:59.144Z,100037.69
2023-03-26T07:31:21.543Z,100026.44
2023-03-26T07:34:51.061Z,100023.25
2023-03-26T07:38:33.239Z,100036.28
2023-03-26T07:42:32.256Z,100020.63
2023-03-26T07:45:42.562Z,100029.88
2023-03-26T07:48:51.853Z,100026.38
2023-03-26T07:51:57.059Z,100025.44
2023-03-26T07:55:01.922Z,100031.97
2023-03-26T07:59:17.144Z,100038.28
2023-03-26T08:02:56.382Z,100015.00
2023-03-26T08:06:26.236Z,100013.13
2023-03-26T08:09:42.100Z,100019.78
2023-03-26T08:13:22.960Z,100010.19
2023-03-26T08:16:54.688Z,100012.16
2023-03-26T08:20:30.994Z,100016.31
2023-03-26T08:23:55.147Z,100012.34
2023-03-26T08:27:31.189Z,100026.34
2023-03-26T08:30:35.969Z,100014.25
2023-03-26T08:33:40.795Z,100013.69
2023-03-26T08:36:46.034Z,100019.53
2023-03-26T08:39:50.814Z,100020.00
2023-03-26T08:43:30.222Z,100018.09
2023-03-26T08:46:49.591Z,100014.84
2023-03-26T08:50:33.382Z,100007.66
2023-03-26T08:54:24.954Z,100011.28
2023-03-26T08:57:49.365Z,100006.47
2023-03-26T09:01:11.658Z,100015.19
2023-03-26T09:04:53.733Z,100007.38
2023-03-26T09:08:06.642Z,99997.59
2023-03-26T09:11:44.694Z,100009.88
2023-03-26T09:15:36.888Z,100004.34
2023-03-26T09:19:31.103Z,100011.56
2023-03-26T09:23:32.988Z,100007.59
2023-03-26T09:26:50.978Z,100000.78
2023-03-26T09:30:22.843Z,99998.16
2023-03-26T09:33:43.587Z,99997.84
2023-03-26T09:37:25.582Z,100003.13
2023-03-26T09:41:17.062Z,99996.25
2023-03-26T09:44:59.668Z,99991.09
2023-03-26T09:48:20.867Z,100003.22
2023-03-26T09:51:58.473Z,99999.41
2023-03-26T09:55:19.642Z,100014.88
2023-03-26T09:58:59.890Z,100012.22
2023-03-26T10:02:15.950Z,100001.63
2023-03-26T10:05:39.132Z,100006.13
2023-03-26T10:09:03.422Z,100001.69
2023-03-26T10:12:29.529Z,100002.22
2023-03-26T10:15:49.998Z,100016.69
2023-03-26T10:19:29.400Z,100015.06
2023-03-26T10:22:56.740Z,100011.59
2023-03-26T10:26:41.756Z,100002.59
2023-03-26T10:30:40.274Z,100018.34
2023-03-26T10:34:28.933Z,100013.59
2023-03-26T10:38:18.232Z,100011.13
2023-03-26T10:41:47.584Z,100019.28
2023-03-26T10:45:38.958Z,100019.16
2023-03-26T10:49:14.396Z,100006.91
2023-03-26T10:52:52.582Z,100013.44
2023-03-26T10:56:21.711Z,100026.81
2023-03-26T10:59:27.588Z,100025.47
2023-03-26T11:02:44.617Z,100023.72
2023-03-26T11:06:16.472Z,100013.41
2023-03-26T11:09:59.305Z,100015.31
2023-03-26T11:13:28.177Z,100021.06
2023-03-26T11:17:02.817Z,100014.69
2023-03-26T11:20:24.654Z,100014.00
2023-03-26T11:24:05.401Z,100013.53
2023-03-26T11:27:27.526Z,100005.88
2023-03-26T11:30:52.903Z,100009.63
2023-03-26T11:34:05.792Z,99997.97
2023-03-26T11:37:31.096Z,100013.78
2023-03-26T11:40:50.857Z,100017.41
2023-03-26T11:44:05.783Z,100013.75
2023-03-26T11:47:15.987Z,100022.44
2023-03-26T11:50:30.476Z,100020.09
2023-03-26T11:53:39.794Z,100017.34
2023-03-26T11:57:05.688Z,100023.16
2023-03-26T12:00:18.067Z,100004.53
2023-03-26T12:03:22.964Z,100001.03
2023-03-26T12:06:32.871Z,100006.75
2023-03-26T12:09:37.038Z,100019.25
2023-03-26T12:12:45.974Z,100003.91
2023-03-26T12:15:50.328Z,100014.22
2023-03-26T12:19:19.806Z,100017.84
2023-03-26T12:22:32.925Z,100018.06
2023-03-26T12:25:39.121Z,100010.94
2023-03-26T12:28:49.846Z,100002.03
2023-03-26T12:32:14.221Z,100007.03
2023-03-26T12:35:29.389Z,99999.91
2023-03-26T12:38:35.497Z,99990.72
2023-03-26T12:44:42.198Z,99990.50
2023-03-26T12:45:12.339Z,99995.56
2023-03-26T12:48:18.576Z,99995.28
2023-03-26T12:51:51.783Z,99990.13
2023-03-26T12:55:30.000Z,99981.91
2023-03-26T12:59:30.188Z,99990.56
2023-03-26T13:03:31.211Z,99988.75
2023-03-26T13:07:00.525Z,99988.91
2023-03-26T13:10:58.143Z,99990.16
2023-03-26T13:14:53.234Z,99990.03
2023-03-26T13:18:27.219Z,99998.84
2023-03-26T13:21:48.636Z,99978.84
2023-03-26T13:25:16.917Z,99993.81
2023-03-26T13:28:58.262Z,99989.63
2023-03-26T13:32:30.105Z,99981.44
2023-03-26T13:36:21.693Z,99980.53
2023-03-26T13:39:36.760Z,99979.94
2023-03-26T13:43:06.218Z,99975.09
2023-03-26T13:46:29.165Z,99980.16
2023-03-26T13:49:54.383Z,99976.22
2023-03-26T13:53:25.723Z,99969.31
2023-03-26T13:56:40.457Z,99972.47
2023-03-26T14:00:06.472Z,99972.34
2023-03-26T14:03:37.308Z,99979.31
2023-03-26T14:06:57.459Z,99973.41
2023-03-26T14:10:08.572Z,99969.22
2023-03-26T14:13:52.202Z,99963.09
2023-03-26T14:17:17.279Z,99971.41
2023-03-26T14:21:01.618Z,99963.66
2023-03-26T14:24:43.686Z,99970.03
2023-03-26T14:28:24.026Z,99977.84
2023-03-26T14:31:42.858Z,99977.56
2023-03-26T14:35:25.972Z,99979.88
2023-03-26T14:39:05.670Z,99984.88
2023-03-26T14:42:31.056Z,99986.47
2023-03-26T14:45:57.828Z,99992.41
2023-03-26T14:49:40.009Z,99992.59
2023-03-26T14:52:51.581Z,99991.53
2023-03-26T14:56:34.509Z,99993.50
2023-03-26T15:00:07.085Z,99996.31
2023-03-26T15:03:58.072Z,99994.06
2023-03-26T15:07:32.983Z,99991.78
2023-03-26T15:11:07.039Z,100003.09
2023-03-26T15:15:17.540Z,100004.28
2023-03-26T15:18:42.688Z,100016.09
2023-03-26T15:22:24.142Z,100013.66
2023-03-26T15:25:44.298Z,100012.09
2023-03-26T15:29:39.394Z,100015.22
2023-03-26T15:33:44.449Z,100020.88
2023-03-26T15:37:22.055Z,100018.00
2023-03-26T15:40:49.173Z,100026.34
2023-03-26T15:44:23.712Z,100017.47
2023-03-26T15:47:50.955Z,100024.38
2023-03-26T15:51:07.632Z,100020.91
2023-03-26T15:54:25.065Z,100018.44
2023-03-26T15:57:56.934Z,100018.97
2023-03-26T16:01:20.612Z,100022.34
2023-03-26T16:05:05.072Z,100036.19
2023-03-26T16:08:30.687Z,100029.22
2023-03-26T16:12:03.316Z,100053.38
2023-03-26T16:15:09.358Z,100049.09
2023-03-26T16:18:19.098Z,100063.47
2023-03-26T16:21:34.558Z,100060.28
2023-03-26T16:24:49.122Z,100071.47
2023-03-26T16:28:45.603Z,100081.41
2023-03-26T16:32:14.186Z,100090.88
2023-03-26T16:35:18.513Z,100090.03
2023-03-26T16:38:24.930Z,100083.94
2023-03-26T16:41:34.220Z,100090.91
2023-03-26T16:45:15.966Z,100075.97
2023-03-26T16:48:30.408Z,100083.69
2023-03-26T16:52:02.361Z,100089.59
2023-03-26T16:55:43.260Z,100086.84
2023-03-26T17:00:05.253Z,100104.69
2023-03-26T17:03:35.542Z,100104.66
2023-03-26T17:07:16.919Z,100114.84
2023-03-26T17:10:56.731Z,100112.16
2023-03-26T17:14:23.036Z,100122.66
2023-03-26T17:17:56.925Z,100120.59
2023-03-26T17:21:17.070Z,100136.47
2023-03-26T17:24:39.038Z,100144.28
2023-03-26T17:28:14.360Z,100144.59
2023-03-26T17:31:45.940Z,100161.56
2023-03-26T17:35:03.524Z,100167.66
2023-03-26T17:38:17.079Z,100178.03
2023-03-26T17:42:16.283Z,100192.81
2023-03-26T17:45:30.392Z,100191.59
2023-03-26T17:48:40.750Z,100199.88
2023-03-26T17:52:48.146Z,100198.97
2023-03-26T17:55:55.987Z,100208.94
2023-03-26T17:59:11.849Z,100206.75
2023-03-26T18:02:22.471Z,100207.16
2023-03-26T18:05:30.860Z,100224.50
2023-03-26T18:08:58.269Z,100225.59
2023-03-26T18:12:40.822Z,100234.19
2023-03-26T18:16:15.457Z,100241.94
2023-03-26T18:19:22.700Z,100260.59
2023-03-26T18:22:30.182Z,100249.63
2023-03-26T18:25:35.675Z,100262.78
2023-03-26T18:28:51.207Z,100268.16
2023-03-26T18:32:02.636Z,100278.84
2023-03-26T18:35:52.005Z,100286.88
2023-03-26T18:38:59.880Z,100286.69
2023-03-26T18:42:06.096Z,100282.63
2023-03-26T18:45:27.629Z,100299.34
2023-03-26T18:48:32.101Z,100304.38
2023-03-26T18:51:46.449Z,100311.56
2023-03-26T18:54:59.617Z,100315.22
2023-03-26T18:58:25.819Z,100323.25
2023-03-26T19:01:36.541Z,100323.47
2023-03-26T19:04:45.329Z,100331.53
2023-03-26T19:07:52.359Z,100331.53
2023-03-26T19:10:57.506Z,100341.25
2023-03-26T19:14:17.852Z,100340.66
2023-03-26T19:17:26.446Z,100349.25
2023-03-26T19:20:40.530Z,100348.66
2023-03-26T19:23:46.825Z,100356.59
2023-03-26T19:26:51.931Z,100351.41
2023-03-26T19:29:57.407Z,100358.25
2023-03-26T19:33:12.885Z,100359.41
2023-03-26T19:36:23.102Z,100370.00
2023-03-26T19:39:41.572Z,100371.81
2023-03-26T19:42:48.828Z,100372.94
2023-03-26T19:45:59.989Z,100378.44
2023-03-26T19:49:05.611Z,100374.16
2023-03-26T19:52:17.732Z,100377.19
2023-03-26T19:55:24.076Z,100387.59
2023-03-26T19:58:28.695Z,100398.91
2023-03-26T20:01:33.320Z,100401.56
2023-03-26T20:04:38.089Z,100394.63
2023-03-26T20:07:44.698Z,100410.38
2023-03-26T20:10:49.238Z,100407.75
2023-03-26T20:13:53.696Z,100414.75
2023-03-26T20:16:58.237Z,100418.41
2023-03-26T20:20:05.747Z,100418.50
2023-03-26T20:23:17.625Z,100416.81
2023-03-26T20:26:24.021Z,100426.41
2023-03-26T20:29:29.341Z,100429.06
2023-03-26T20:32:34.316Z,100429.03
2023-03-26T20:35:38.578Z,100425.63
2023-03-26T20:38:44.844Z,100429.25
2023-03-26T20:41:51.225Z,100436.31
2023-03-26T20:44:56.577Z,100444.28
2023-03-26T20:48:02.881Z,100436.56
2023-03-26T20:51:09.205Z,100436.75
2023-03-26T20:54:21.298Z,100442.81
2023-03-26T20:57:26.347Z,100455.00
2023-03-26T21:00:32.363Z,100466.28
2023-03-26T21:03:37.457Z,100457.78
2023-03-26T21:06:42.995Z,100454.38
2023-03-26T21:09:48.736Z,100463.94
2023-03-26T21:13:34.277Z,100471.78
2023-03-26T21:16:39.032Z,100467.47
2023-03-26T21:19:45.288Z,100471.91
2023-03-26T21:23:08.760Z,100479.81
2023-03-26T21:26:29.825Z,100482.50
2023-03-26T21:29:34.448Z,100485.22
2023-03-26T21:32:39.125Z,100489.63
2023-03-26T21:35:45.047Z,100501.06
2023-03-26T21:38:50.602Z,100504.66
2023-03-26T21:42:04.950Z,100508.09
2023-03-26T21:45:12.088Z,100526.31
2023-03-26T21:48:17.368Z,100516.81
2023-03-26T21:51:22.103Z,100520.34
2023-03-26T21:54:30.779Z,100524.81
2023-03-26T21:58:11.174Z,100528.34
2023-03-26T22:01:31.659Z,100531.75
2023-03-26T22:05:23.165Z,100536.16
2023-03-26T22:08:40.663Z,100536.41
2023-03-26T22:11:44.741Z,100538.19
2023-03-26T22:14:48.867Z,100546.91
2023-03-26T22:17:56.496Z,100548.69
2023-03-26T22:21:02.590Z,100554.72
2023-03-26T22:24:07.553Z,100556.47
2023-03-26T22:27:13.087Z,100565.16
2023-03-26T22:30:18.889Z,100567.94
2023-03-26T22:33:24.221Z,100574.97
2023-03-26T22:36:28.640Z,100577.59
2023-03-26T22:39:32.846Z,100574.97
2023-03-26T22:42:37.401Z,100576.88
2023-03-26T22:45:48.835Z,100575.22
2023-03-26T22:48:53.192Z,100572.69
2023-03-26T22:51:57.525Z,100571.06
2023-03-26T22:55:02.172Z,100574.69
2023-03-26T22:58:06.906Z,100587.75
2023-03-26T23:01:19.561Z,100589.53
2023-03-26T23:04:31.473Z,100594.78
2023-03-26T23:07:37.562Z,100600.88
2023-03-26T23:10:42.599Z,100599.25
2023-03-26T23:13:47.820Z,100611.38
2023-03-26T23:16:52.576Z,100613.13
2023-03-26T23:19:56.845Z,100612.19
2023-03-26T23:23:01.306Z,100626.75
2023-03-26T23:26:06.850Z,100618.06
2023-03-26T23:29:11.493Z,100624.03
2023-03-26T23:32:23.997Z,100625.75
2023-03-26T23:35:29.461Z,100631.94
2023-03-26T23:38:44.005Z,100630.19
2023-03-26T23:41:48.739Z,100632.75
2023-03-26T23:44:56.435Z,100636.22
2023-03-26T23:48:02.426Z,100643.16
2023-03-26T23:51:09.739Z,100648.28
2023-03-26T23:54:15.129Z,100645.00
2023-03-26T23:57:19.546Z,100650.16
